createdAt,value
2016-12-11T00:00:38.810Z,1013.94
2016-12-11T00:01:39.456Z,1013.89
2016-12-11T00:02:40.090Z,1013.86
2016-12-11T00:03:40.738Z,1013.87
2016-12-11T00:04:41.352Z,1013.81
2016-12-11T00:05:41.993Z,1013.83
2016-12-11T00:06:42.622Z,1013.78
2016-12-11T00:07:43.264Z,1013.73
2016-12-11T00:08:43.912Z,1013.72
2016-12-11T00:09:44.546Z,1013.68
2016-12-11T00:10:45.209Z,1013.61
2016-12-11T00:11:45.871Z,1013.53
2016-12-11T00:12:46.489Z,1013.52
2016-12-11T00:13:47.131Z,1013.47
2016-12-11T00:14:47.783Z,1013.51
2016-12-11T00:15:48.413Z,1013.46
2016-12-11T00:16:49.064Z,1013.38
2016-12-11T00:17:49.716Z,1013.35
2016-12-11T00:18:50.368Z,1013.3
2016-12-11T00:19:51.022Z,1013.24
2016-12-11T00:20:51.647Z,1013.23
2016-12-11T00:21:52.300Z,1013.19
2016-12-11T00:22:52.953Z,1013.15
2016-12-11T00:23:53.587Z,1013.14
2016-12-11T00:24:54.212Z,1013.1
2016-12-11T00:25:54.835Z,1013.14
2016-12-11T00:26:55.477Z,1013.09
2016-12-11T00:27:56.115Z,1013.06
2016-12-11T00:28:56.751Z,1013.09
2016-12-11T00:29:57.375Z,1013.07
2016-12-11T00:30:58.052Z,1013.05
2016-12-11T00:31:58.701Z,1013.08
2016-12-11T00:32:59.322Z,1013.05
2016-12-11T00:33:59.988Z,1012.96
2016-12-11T00:35:00.625Z,1012.96
2016-12-11T00:36:01.281Z,1012.93
2016-12-11T00:37:01.943Z,1012.91
2016-12-11T00:38:02.593Z,1012.89
2016-12-11T00:39:03.232Z,1012.89
2016-12-11T00:40:03.887Z,1012.83
2016-12-11T00:41:04.577Z,1012.82
2016-12-11T00:42:05.203Z,1012.85
2016-12-11T00:43:05.871Z,1012.88
2016-12-11T00:44:06.519Z,1012.92
2016-12-11T00:45:07.165Z,1012.86
2016-12-11T00:46:07.805Z,1012.82
2016-12-11T00:47:08.459Z,1012.82
2016-12-11T00:48:09.094Z,1012.74
2016-12-11T00:49:09.732Z,1012.77
2016-12-11T00:50:10.373Z,1012.76
2016-12-11T00:51:11.042Z,1012.73
2016-12-11T00:52:11.723Z,1012.7
2016-12-11T00:53:12.397Z,1012.62
2016-12-11T00:54:13.037Z,1012.61
2016-12-11T00:55:13.695Z,1012.61
2016-12-11T00:56:14.324Z,1012.55
2016-12-11T00:57:14.962Z,1012.54
2016-12-11T00:58:15.592Z,1012.52
2016-12-11T00:59:16.244Z,1012.52
2016-12-11T01:00:16.876Z,1012.5
2016-12-11T01:01:17.508Z,1012.47
2016-12-11T01:02:18.148Z,1012.44
2016-12-11T01:03:18.789Z,1012.47
2016-12-11T01:04:19.427Z,1012.43
2016-12-11T01:05:20.071Z,1012.44
2016-12-11T01:06:20.692Z,1012.38
2016-12-11T01:07:21.336Z,1012.38
2016-12-11T01:08:21.966Z,1012.34
2016-12-11T01:09:22.600Z,1012.28
2016-12-11T01:10:23.207Z,1012.26
2016-12-11T01:11:23.831Z,1012.26
2016-12-11T01:12:24.448Z,1012.2
2016-12-11T01:13:25.071Z,1012.16
2016-12-11T01:14:25.697Z,1012.12
2016-12-11T01:15:26.322Z,1012.05
2016-12-11T01:16:26.959Z,1012.03
2016-12-11T01:17:27.592Z,1012.07
2016-12-11T01:18:28.241Z,1012.01
2016-12-11T01:19:28.862Z,1011.97
2016-12-11T01:20:29.487Z,1011.94
2016-12-11T01:21:30.144Z,1011.93
2016-12-11T01:22:30.764Z,1011.86
2016-12-11T01:23:31.434Z,1011.84
2016-12-11T01:24:32.110Z,1011.81
2016-12-11T01:25:32.749Z,1011.81
2016-12-11T01:26:33.380Z,1011.8
2016-12-11T01:27:33.999Z,1011.78
2016-12-11T01:28:34.614Z,1011.82
2016-12-11T01:29:35.227Z,1011.83
2016-12-11T01:30:35.877Z,1011.81
2016-12-11T01:31:36.488Z,1011.82
2016-12-11T01:32:37.147Z,1011.81
2016-12-11T01:33:37.790Z,1011.78
2016-12-11T01:34:38.418Z,1011.78
2016-12-11T01:35:39.039Z,1011.78
2016-12-11T01:36:39.678Z,1011.77
2016-12-11T01:37:40.302Z,1011.77
2016-12-11T01:38:40.962Z,1011.72
2016-12-11T01:39:41.595Z,1011.69
2016-12-11T01:40:42.217Z,1011.64
2016-12-11T01:41:42.840Z,1011.63
2016-12-11T01:42:43.465Z,1011.56
2016-12-11T01:43:44.082Z,1011.55
2016-12-11T01:44:44.726Z,1011.53
2016-12-11T01:45:45.368Z,1011.44
2016-12-11T01:46:46.006Z,1011.42
2016-12-11T01:47:46.628Z,1011.34
2016-12-11T01:48:47.252Z,1011.31
2016-12-11T01:49:47.871Z,1011.23
2016-12-11T01:50:48.518Z,1011.27
2016-12-11T01:51:49.152Z,1011.28
2016-12-11T01:52:49.777Z,1011.27
2016-12-11T01:53:50.429Z,1011.23
2016-12-11T01:54:51.078Z,1011.18
2016-12-11T01:55:51.694Z,1011.23
2016-12-11T01:56:52.319Z,1011.2
2016-12-11T01:57:52.950Z,1011.24
2016-12-11T01:58:53.584Z,1011.21
2016-12-11T01:59:54.241Z,1011.18
2016-12-11T02:00:54.864Z,1011.16
2016-12-11T02:01:55.493Z,1011.14
2016-12-11T02:02:56.124Z,1011.16
2016-12-11T02:03:56.745Z,1011.08
2016-12-11T02:04:57.366Z,1011.08
2016-12-11T02:05:58.017Z,1011.02
2016-12-11T02:06:58.669Z,1011.01
2016-12-11T02:07:59.291Z,1010.95
2016-12-11T02:08:59.919Z,1010.85
2016-12-11T02:10:00.534Z,1010.81
2016-12-11T02:11:01.133Z,1010.74
2016-12-11T02:12:01.761Z,1010.63
2016-12-11T02:13:02.404Z,1010.59
2016-12-11T02:14:03.065Z,1010.48
2016-12-11T02:15:03.704Z,1010.4
2016-12-11T02:16:04.365Z,1010.36
2016-12-11T02:17:04.990Z,1010.41
2016-12-11T02:18:05.613Z,1010.39
2016-12-11T02:19:06.259Z,1010.39
2016-12-11T02:20:06.886Z,1010.34
2016-12-11T02:21:07.502Z,1010.31
2016-12-11T02:22:08.129Z,1010.25
2016-12-11T02:23:08.770Z,1010.19
2016-12-11T02:24:09.364Z,1010.17
2016-12-11T02:25:10.018Z,1010.21
2016-12-11T02:26:10.661Z,1010.15
2016-12-11T02:27:11.285Z,1010.11
2016-12-11T02:28:11.941Z,1010.14
2016-12-11T02:29:12.567Z,1010.09
2016-12-11T02:30:13.187Z,1010.03
2016-12-11T02:31:13.802Z,1010
2016-12-11T02:32:14.432Z,1009.94
2016-12-11T02:33:15.056Z,1009.93
2016-12-11T02:34:15.709Z,1009.85
2016-12-11T02:35:16.353Z,1009.84
2016-12-11T02:36:16.984Z,1009.8
2016-12-11T02:37:17.636Z,1009.71
2016-12-11T02:38:18.253Z,1009.67
2016-12-11T02:39:18.878Z,1009.66
2016-12-11T02:40:19.505Z,1009.68
2016-12-11T02:41:20.135Z,1009.67
2016-12-11T02:42:20.778Z,1009.64
2016-12-11T02:43:21.435Z,1009.64
2016-12-11T02:44:22.069Z,1009.59
2016-12-11T02:45:22.709Z,1009.58
2016-12-11T02:46:23.330Z,1009.55
2016-12-11T02:47:23.952Z,1009.54
2016-12-11T02:48:24.565Z,1009.49
2016-12-11T02:49:25.193Z,1009.5
2016-12-11T02:50:25.811Z,1009.49
2016-12-11T02:51:26.434Z,1009.48
2016-12-11T02:52:27.055Z,1009.44
2016-12-11T02:53:27.676Z,1009.44
2016-12-11T02:54:28.292Z,1009.37
2016-12-11T02:55:28.922Z,1009.34
2016-12-11T02:56:29.533Z,1009.27
2016-12-11T02:57:30.161Z,1009.3
2016-12-11T02:58:33.352Z,1009.27
2016-12-11T02:59:33.978Z,1009.26
2016-12-11T03:00:34.623Z,1009.27
2016-12-11T03:01:35.244Z,1009.23
2016-12-11T03:02:35.887Z,1009.24
2016-12-11T03:03:36.510Z,1009.19
2016-12-11T03:04:37.156Z,1009.21
2016-12-11T03:05:37.776Z,1009.24
2016-12-11T03:06:38.412Z,1009.23
2016-12-11T03:07:39.033Z,1009.21
2016-12-11T03:08:39.698Z,1009.18
2016-12-11T03:09:40.333Z,1009.19
2016-12-11T03:10:40.953Z,1009.24
2016-12-11T03:11:41.571Z,1009.18
2016-12-11T03:12:42.191Z,1009.19
2016-12-11T03:13:42.809Z,1009.19
2016-12-11T03:14:43.455Z,1009.17
2016-12-11T03:15:44.116Z,1009.13
2016-12-11T03:16:44.733Z,1009.05
2016-12-11T03:17:45.347Z,1009.03
2016-12-11T03:18:45.978Z,1009
2016-12-11T03:19:46.592Z,1008.91
2016-12-11T03:20:47.235Z,1008.88
2016-12-11T03:21:47.854Z,1008.8
2016-12-11T03:22:48.479Z,1008.73
2016-12-11T03:23:49.144Z,1008.71
2016-12-11T03:24:49.791Z,1008.7
2016-12-11T03:25:50.425Z,1008.72
2016-12-11T03:26:51.066Z,1008.74
2016-12-11T03:27:51.688Z,1008.75
2016-12-11T03:28:52.335Z,1008.76
2016-12-11T03:29:53.000Z,1008.77
2016-12-11T03:30:53.651Z,1008.74
2016-12-11T03:31:54.319Z,1008.7
2016-12-11T03:32:54.978Z,1008.68
2016-12-11T03:33:55.585Z,1008.67
2016-12-11T03:34:56.205Z,1008.66
2016-12-11T03:35:56.820Z,1008.63
2016-12-11T03:36:57.485Z,1008.61
2016-12-11T03:37:58.132Z,1008.56
2016-12-11T03:38:58.760Z,1008.5
2016-12-11T03:39:59.366Z,1008.49
2016-12-11T03:40:59.995Z,1008.46
2016-12-11T03:42:01.368Z,1008.44
2016-12-11T03:43:01.987Z,1008.44
2016-12-11T03:44:02.626Z,1008.46
2016-12-11T03:45:03.251Z,1008.41
2016-12-11T03:46:03.879Z,1008.44
2016-12-11T03:47:04.530Z,1008.39
2016-12-11T03:48:05.161Z,1008.42
2016-12-11T03:49:05.817Z,1008.38
2016-12-11T03:50:06.442Z,1008.37
2016-12-11T03:51:07.064Z,1008.39
2016-12-11T03:52:07.689Z,1008.33
2016-12-11T03:53:08.301Z,1008.33
2016-12-11T03:54:08.926Z,1008.29
2016-12-11T03:55:09.546Z,1008.26
2016-12-11T03:56:10.176Z,1008.28
2016-12-11T03:57:10.789Z,1008.31
2016-12-11T03:58:11.409Z,1008.31
2016-12-11T03:59:12.038Z,1008.34
2016-12-11T04:00:12.649Z,1008.3
2016-12-11T04:01:13.270Z,1008.32
2016-12-11T04:02:13.919Z,1008.29
2016-12-11T04:03:14.566Z,1008.31
2016-12-11T04:04:15.200Z,1008.24
2016-12-11T04:05:15.820Z,1008.21
2016-12-11T04:06:16.474Z,1008.12
2016-12-11T04:07:17.090Z,1008.11
2016-12-11T04:08:17.733Z,1008.11
2016-12-11T04:09:18.352Z,1008.06
2016-12-11T04:10:18.969Z,1008.02
2016-12-11T04:11:19.604Z,1007.97
2016-12-11T04:12:20.258Z,1007.9
2016-12-11T04:13:21.643Z,1007.82
2016-12-11T04:14:22.264Z,1007.83
2016-12-11T04:15:22.897Z,1007.83
2016-12-11T04:16:23.511Z,1007.86
2016-12-11T04:17:24.163Z,1007.95
2016-12-11T04:18:24.805Z,1007.91
2016-12-11T04:19:25.440Z,1007.89
2016-12-11T04:20:26.068Z,1007.83
2016-12-11T04:21:26.728Z,1007.86
2016-12-11T04:22:27.372Z,1007.85
2016-12-11T04:23:28.009Z,1007.86
2016-12-11T04:24:28.650Z,1007.86
2016-12-11T04:25:29.322Z,1007.87
2016-12-11T04:26:29.977Z,1007.88
2016-12-11T04:27:30.616Z,1007.85
2016-12-11T04:28:31.286Z,1007.82
2016-12-11T04:29:31.895Z,1007.79
2016-12-11T04:30:32.512Z,1007.72
2016-12-11T04:31:33.135Z,1007.75
2016-12-11T04:32:33.757Z,1007.77
2016-12-11T04:33:34.386Z,1007.8
2016-12-11T04:34:35.026Z,1007.84
2016-12-11T04:35:35.647Z,1007.82
2016-12-11T04:36:36.255Z,1007.83
2016-12-11T04:37:36.886Z,1007.76
2016-12-11T04:38:37.519Z,1007.77
2016-12-11T04:39:38.132Z,1007.71
2016-12-11T04:40:38.776Z,1007.7
2016-12-11T04:41:39.395Z,1007.71
2016-12-11T04:42:40.037Z,1007.65
2016-12-11T04:43:40.719Z,1007.63
2016-12-11T04:44:41.327Z,1007.53
2016-12-11T04:45:41.959Z,1007.57
2016-12-11T04:46:42.580Z,1007.56
2016-12-11T04:47:43.221Z,1007.61
2016-12-11T04:48:43.869Z,1007.62
2016-12-11T04:49:44.514Z,1007.64
2016-12-11T04:50:45.160Z,1007.61
2016-12-11T04:51:45.789Z,1007.62
2016-12-11T04:52:46.437Z,1007.66
2016-12-11T04:53:47.056Z,1007.66
2016-12-11T04:54:47.699Z,1007.65
2016-12-11T04:55:48.342Z,1007.69
2016-12-11T04:56:48.989Z,1007.72
2016-12-11T04:57:49.583Z,1007.72
2016-12-11T04:58:50.218Z,1007.72
2016-12-11T04:59:50.848Z,1007.71
2016-12-11T05:00:51.464Z,1007.73
2016-12-11T05:01:52.088Z,1007.77
2016-12-11T05:02:52.703Z,1007.8
2016-12-11T05:03:53.336Z,1007.81
2016-12-11T05:04:53.974Z,1007.79
2016-12-11T05:05:54.613Z,1007.78
2016-12-11T05:06:55.230Z,1007.84
2016-12-11T05:07:55.870Z,1007.86
2016-12-11T05:08:56.489Z,1007.93
2016-12-11T05:09:57.141Z,1007.91
2016-12-11T05:10:57.759Z,1007.95
2016-12-11T05:11:59.279Z,1007.96
2016-12-11T05:12:59.918Z,1007.94
2016-12-11T05:14:00.556Z,1008
2016-12-11T05:15:01.214Z,1008.07
2016-12-11T05:16:01.822Z,1008.06
2016-12-11T05:17:02.439Z,1007.98
2016-12-11T05:18:03.044Z,1007.99
2016-12-11T05:19:03.719Z,1008.08
2016-12-11T05:20:04.343Z,1008.09
2016-12-11T05:21:04.947Z,1008.1
2016-12-11T05:22:05.591Z,1008.11
2016-12-11T05:23:06.210Z,1008.15
2016-12-11T05:24:06.837Z,1008.22
2016-12-11T05:25:07.477Z,1008.2
2016-12-11T05:26:08.091Z,1008.17
2016-12-11T05:27:08.752Z,1008.25
2016-12-11T05:28:09.398Z,1008.22
2016-12-11T05:29:10.020Z,1008.21
2016-12-11T05:30:10.637Z,1008.25
2016-12-11T05:31:11.270Z,1008.28
2016-12-11T05:32:11.905Z,1008.25
2016-12-11T05:33:12.521Z,1008.23
2016-12-11T05:34:13.167Z,1008.24
2016-12-11T05:35:13.788Z,1008.19
2016-12-11T05:36:14.440Z,1008.21
2016-12-11T05:37:15.061Z,1008.25
2016-12-11T05:38:15.688Z,1008.2
2016-12-11T05:39:16.335Z,1008.24
2016-12-11T05:40:17.013Z,1008.3
2016-12-11T05:41:17.696Z,1008.26
2016-12-11T05:42:18.339Z,1008.29
2016-12-11T05:43:19.003Z,1008.36
2016-12-11T05:44:19.655Z,1008.37
2016-12-11T05:45:20.289Z,1008.46
2016-12-11T05:46:20.927Z,1008.49
2016-12-11T05:47:21.548Z,1008.54
2016-12-11T05:48:22.190Z,1008.6
2016-12-11T05:49:22.828Z,1008.62
2016-12-11T05:50:23.476Z,1008.65
2016-12-11T05:51:24.100Z,1008.68
2016-12-11T05:52:24.723Z,1008.77
2016-12-11T05:53:25.353Z,1008.83
2016-12-11T05:54:25.996Z,1008.87
2016-12-11T05:55:26.632Z,1008.95
2016-12-11T05:56:27.247Z,1009.04
2016-12-11T05:57:27.887Z,1009.05
2016-12-11T05:58:28.518Z,1009.11
2016-12-11T05:59:29.137Z,1009.18
2016-12-11T06:00:29.777Z,1009.27
2016-12-11T06:01:30.423Z,1009.33
2016-12-11T06:02:31.048Z,1009.32
2016-12-11T06:03:31.692Z,1009.41
2016-12-11T06:04:32.319Z,1009.44
2016-12-11T06:05:32.936Z,1009.4
2016-12-11T06:06:33.551Z,1009.42
2016-12-11T06:07:34.183Z,1009.45
2016-12-11T06:08:34.810Z,1009.48
2016-12-11T06:09:35.448Z,1009.49
2016-12-11T06:10:36.118Z,1009.57
2016-12-11T06:11:36.759Z,1009.58
2016-12-11T06:12:37.386Z,1009.59
2016-12-11T06:13:38.004Z,1009.67
2016-12-11T06:14:38.630Z,1009.65
2016-12-11T06:15:39.247Z,1009.66
2016-12-11T06:16:39.899Z,1009.69
2016-12-11T06:17:40.543Z,1009.67
2016-12-11T06:18:41.170Z,1009.7
2016-12-11T06:19:41.794Z,1009.67
2016-12-11T06:20:42.402Z,1009.68
2016-12-11T06:21:43.029Z,1009.7
2016-12-11T06:22:43.640Z,1009.72
2016-12-11T06:23:44.285Z,1009.82
2016-12-11T06:24:44.899Z,1009.8
2016-12-11T06:25:45.515Z,1009.8
2016-12-11T06:26:46.165Z,1009.83
2016-12-11T06:27:46.846Z,1009.85
2016-12-11T06:28:47.454Z,1009.84
2016-12-11T06:29:48.121Z,1009.88
2016-12-11T06:30:48.741Z,1009.89
2016-12-11T06:31:49.377Z,1009.9
2016-12-11T06:32:49.996Z,1009.92
2016-12-11T06:33:50.618Z,1009.93
2016-12-11T06:34:51.237Z,1009.93
2016-12-11T06:35:51.878Z,1009.93
2016-12-11T06:36:52.497Z,1009.96
2016-12-11T06:37:53.178Z,1010.03
2016-12-11T06:38:53.846Z,1010.04
2016-12-11T06:39:54.465Z,1010.02
2016-12-11T06:40:55.112Z,1010.05
2016-12-11T06:41:55.795Z,1010.08
2016-12-11T06:42:56.448Z,1010.07
2016-12-11T06:43:57.071Z,1010.05
2016-12-11T06:44:57.694Z,1010.1
2016-12-11T06:45:58.345Z,1010.1
2016-12-11T06:46:58.959Z,1010.13
2016-12-11T06:47:59.579Z,1010.17
2016-12-11T06:49:00.254Z,1010.18
2016-12-11T06:50:00.862Z,1010.13
2016-12-11T06:51:01.487Z,1010.2
2016-12-11T06:52:02.104Z,1010.22
2016-12-11T06:53:02.723Z,1010.23
2016-12-11T06:54:03.363Z,1010.21
2016-12-11T06:55:04.048Z,1010.2
2016-12-11T06:56:04.647Z,1010.22
2016-12-11T06:57:05.293Z,1010.19
2016-12-11T06:58:05.973Z,1010.17
2016-12-11T06:59:06.615Z,1010.23
2016-12-11T07:00:07.264Z,1010.21
2016-12-11T07:01:07.895Z,1010.19
2016-12-11T07:02:08.536Z,1010.22
2016-12-11T07:03:09.218Z,1010.22
2016-12-11T07:04:09.857Z,1010.23
2016-12-11T07:05:10.480Z,1010.25
2016-12-11T07:06:11.108Z,1010.3
2016-12-11T07:07:11.723Z,1010.31
2016-12-11T07:08:12.350Z,1010.3
2016-12-11T07:09:13.008Z,1010.29
2016-12-11T07:10:13.652Z,1010.3
2016-12-11T07:11:14.297Z,1010.29
2016-12-11T07:12:14.977Z,1010.31
2016-12-11T07:13:15.620Z,1010.32
2016-12-11T07:14:16.272Z,1010.34
2016-12-11T07:15:16.900Z,1010.39
2016-12-11T07:16:17.550Z,1010.4
2016-12-11T07:17:18.202Z,1010.45
2016-12-11T07:18:18.821Z,1010.45
2016-12-11T07:19:19.445Z,1010.44
2016-12-11T07:20:20.068Z,1010.47
2016-12-11T07:21:20.730Z,1010.49
2016-12-11T07:22:21.369Z,1010.45
2016-12-11T07:23:22.009Z,1010.53
2016-12-11T07:24:22.632Z,1010.51
2016-12-11T07:25:23.281Z,1010.45
2016-12-11T07:26:23.897Z,1010.51
2016-12-11T07:27:24.599Z,1010.54
2016-12-11T07:28:25.237Z,1010.6
2016-12-11T07:29:25.851Z,1010.67
2016-12-11T07:30:26.480Z,1010.76
2016-12-11T07:31:27.103Z,1010.81
2016-12-11T07:32:27.717Z,1010.86
2016-12-11T07:33:28.325Z,1010.91
2016-12-11T07:34:28.968Z,1010.93
2016-12-11T07:35:29.588Z,1010.92
2016-12-11T07:36:30.204Z,1010.95
2016-12-11T07:37:30.825Z,1010.96
2016-12-11T07:38:31.447Z,1010.93
2016-12-11T07:39:32.068Z,1010.95
2016-12-11T07:40:32.772Z,1011.02
2016-12-11T07:41:33.420Z,1011.07
2016-12-11T07:42:34.109Z,1011.1
2016-12-11T07:43:34.756Z,1011.08
2016-12-11T07:44:35.373Z,1011.12
2016-12-11T07:45:35.994Z,1011.08
2016-12-11T07:46:36.641Z,1011.13
2016-12-11T07:47:37.289Z,1011.09
2016-12-11T07:48:37.928Z,1011.09
2016-12-11T07:49:38.579Z,1011.14
2016-12-11T07:50:39.203Z,1011.22
2016-12-11T07:51:39.876Z,1011.2
2016-12-11T07:52:40.497Z,1011.22
2016-12-11T07:53:41.148Z,1011.24
2016-12-11T07:54:41.807Z,1011.28
2016-12-11T07:55:42.436Z,1011.3
2016-12-11T07:56:43.092Z,1011.32
2016-12-11T07:57:43.845Z,1011.34
2016-12-11T07:58:44.518Z,1011.39
2016-12-11T07:59:45.176Z,1011.43
2016-12-11T08:00:45.850Z,1011.45
2016-12-11T08:01:46.512Z,1011.47
2016-12-11T08:02:47.142Z,1011.43
2016-12-11T08:03:47.765Z,1011.48
2016-12-11T08:04:48.409Z,1011.51
2016-12-11T08:05:49.044Z,1011.55
2016-12-11T08:06:49.673Z,1011.59
2016-12-11T08:07:50.355Z,1011.63
2016-12-11T08:08:51.000Z,1011.62
2016-12-11T08:09:51.715Z,1011.66
2016-12-11T08:10:52.362Z,1011.65
2016-12-11T08:11:53.023Z,1011.59
2016-12-11T08:12:53.735Z,1011.59
2016-12-11T08:13:54.387Z,1011.59
2016-12-11T08:14:55.048Z,1011.58
2016-12-11T08:15:55.739Z,1011.58
2016-12-11T08:16:56.406Z,1011.59
2016-12-11T08:17:57.054Z,1011.59
2016-12-11T08:18:57.719Z,1011.59
2016-12-11T08:19:58.360Z,1011.58
2016-12-11T08:20:59.104Z,1011.63
2016-12-11T08:21:59.767Z,1011.6
2016-12-11T08:23:00.430Z,1011.6
2016-12-11T08:24:01.088Z,1011.57
2016-12-11T08:25:01.732Z,1011.55
2016-12-11T08:26:02.396Z,1011.57
2016-12-11T08:27:03.047Z,1011.59
2016-12-11T08:28:03.697Z,1011.61
2016-12-11T08:29:04.413Z,1011.61
2016-12-11T08:30:05.052Z,1011.58
2016-12-11T08:31:05.743Z,1011.59
2016-12-11T08:32:06.367Z,1011.65
2016-12-11T08:33:07.019Z,1011.6
2016-12-11T08:34:07.672Z,1011.62
2016-12-11T08:35:08.332Z,1011.58
2016-12-11T08:36:08.981Z,1011.62
2016-12-11T08:37:09.637Z,1011.61
2016-12-11T08:38:10.289Z,1011.61
2016-12-11T08:39:10.934Z,1011.61
2016-12-11T08:40:11.593Z,1011.6
2016-12-11T08:41:12.245Z,1011.67
2016-12-11T08:42:12.882Z,1011.65
2016-12-11T08:43:13.537Z,1011.66
2016-12-11T08:44:14.164Z,1011.67
2016-12-11T08:45:14.806Z,1011.61
2016-12-11T08:46:15.457Z,1011.72
2016-12-11T08:47:17.079Z,1011.73
2016-12-11T08:48:17.699Z,1011.74
2016-12-11T08:49:18.350Z,1011.75
2016-12-11T08:50:18.973Z,1011.75
2016-12-11T08:51:19.616Z,1011.73
2016-12-11T08:52:20.311Z,1011.7
2016-12-11T08:53:20.951Z,1011.76
2016-12-11T08:54:21.581Z,1011.76
2016-12-11T08:55:22.238Z,1011.75
2016-12-11T08:56:22.897Z,1011.74
2016-12-11T08:57:23.551Z,1011.8
2016-12-11T08:58:24.189Z,1011.78
2016-12-11T08:59:24.828Z,1011.71
2016-12-11T09:00:25.452Z,1011.72
2016-12-11T09:01:26.072Z,1011.78
2016-12-11T09:02:26.692Z,1011.77
2016-12-11T09:03:27.328Z,1011.83
2016-12-11T09:04:27.941Z,1011.81
2016-12-11T09:05:28.577Z,1011.83
2016-12-11T09:06:29.203Z,1011.85
2016-12-11T09:07:29.836Z,1011.86
2016-12-11T09:08:30.469Z,1011.82
2016-12-11T09:09:31.100Z,1011.9
2016-12-11T09:10:31.744Z,1011.94
2016-12-11T09:11:32.385Z,1011.95
2016-12-11T09:12:33.049Z,1011.92
2016-12-11T09:13:33.673Z,1011.94
2016-12-11T09:14:34.313Z,1011.97
2016-12-11T09:15:35.046Z,1012.01
2016-12-11T09:16:35.677Z,1011.98
2016-12-11T09:17:36.346Z,1011.93
2016-12-11T09:18:37.003Z,1011.97
2016-12-11T09:19:37.803Z,1012.06
2016-12-11T09:20:38.439Z,1011.96
2016-12-11T09:21:39.070Z,1011.97
2016-12-11T09:22:39.708Z,1012.05
2016-12-11T09:23:40.354Z,1012.05
2016-12-11T09:24:40.993Z,1012.07
2016-12-11T09:25:41.616Z,1012.06
2016-12-11T09:26:42.250Z,1012.06
2016-12-11T09:27:42.891Z,1012.1
2016-12-11T09:28:43.523Z,1012.06
2016-12-11T09:29:44.197Z,1012.09
2016-12-11T09:30:44.787Z,1012.13
2016-12-11T09:31:45.418Z,1012.12
2016-12-11T09:32:46.038Z,1012.13
2016-12-11T09:33:46.696Z,1012.13
2016-12-11T09:34:47.337Z,1012.15
2016-12-11T09:35:47.978Z,1012.19
2016-12-11T09:36:48.610Z,1012.17
2016-12-11T09:37:49.255Z,1012.16
2016-12-11T09:38:49.883Z,1012.2
2016-12-11T09:39:50.514Z,1012.18
2016-12-11T09:40:51.219Z,1012.2
2016-12-11T09:41:51.894Z,1012.18
2016-12-11T09:42:52.569Z,1012.25
2016-12-11T09:43:53.240Z,1012.21
2016-12-11T09:44:53.960Z,1012.24
2016-12-11T09:45:54.591Z,1012.26
2016-12-11T09:46:55.276Z,1012.3
2016-12-11T09:47:55.996Z,1012.29
2016-12-11T09:48:56.771Z,1012.32
2016-12-11T09:49:57.642Z,1012.27
2016-12-11T09:50:58.353Z,1012.34
2016-12-11T09:51:58.971Z,1012.35
2016-12-11T09:52:59.646Z,1012.36
2016-12-11T09:54:00.330Z,1012.29
2016-12-11T09:55:00.964Z,1012.33
2016-12-11T09:56:01.647Z,1012.37
2016-12-11T09:57:02.292Z,1012.43
2016-12-11T09:58:02.936Z,1012.44
2016-12-11T09:59:03.582Z,1012.4
2016-12-11T10:00:04.228Z,1012.4
2016-12-11T10:01:04.872Z,1012.37
2016-12-11T10:02:05.519Z,1012.4
2016-12-11T10:03:06.199Z,1012.44
2016-12-11T10:04:06.860Z,1012.39
2016-12-11T10:05:07.559Z,1012.38
2016-12-11T10:06:08.214Z,1012.42
2016-12-11T10:07:09.032Z,1012.41
2016-12-11T10:08:09.839Z,1012.41
2016-12-11T10:09:10.476Z,1012.38
2016-12-11T10:10:11.256Z,1012.41
2016-12-11T10:11:11.915Z,1012.34
2016-12-11T10:12:12.569Z,1012.43
2016-12-11T10:13:13.237Z,1012.44
2016-12-11T10:14:13.899Z,1012.37
2016-12-11T10:15:14.538Z,1012.38
2016-12-11T10:16:15.180Z,1012.34
2016-12-11T10:17:15.856Z,1012.41
2016-12-11T10:18:16.549Z,1012.38
2016-12-11T10:19:17.200Z,1012.39
2016-12-11T10:20:17.854Z,1012.38
2016-12-11T10:21:18.512Z,1012.42
2016-12-11T10:22:19.197Z,1012.45
2016-12-11T10:23:19.833Z,1012.38
2016-12-11T10:24:20.534Z,1012.42
2016-12-11T10:25:21.309Z,1012.36
2016-12-11T10:26:22.007Z,1012.46
2016-12-11T10:27:22.825Z,1012.4
2016-12-11T10:28:23.505Z,1012.44
2016-12-11T10:29:24.189Z,1012.42
2016-12-11T10:30:24.868Z,1012.46
2016-12-11T10:31:25.511Z,1012.49
2016-12-11T10:32:26.140Z,1012.48
2016-12-11T10:33:26.813Z,1012.48
2016-12-11T10:34:27.517Z,1012.42
2016-12-11T10:35:28.157Z,1012.48
2016-12-11T10:36:28.894Z,1012.48
2016-12-11T10:37:29.539Z,1012.47
2016-12-11T10:38:30.290Z,1012.52
2016-12-11T10:39:30.922Z,1012.53
2016-12-11T10:40:31.812Z,1012.43
2016-12-11T10:41:32.653Z,1012.43
2016-12-11T10:42:33.379Z,1012.53
2016-12-11T10:43:34.085Z,1012.44
2016-12-11T10:44:34.756Z,1012.47
2016-12-11T10:45:35.664Z,1012.49
2016-12-11T10:46:36.289Z,1012.51
2016-12-11T10:47:36.947Z,1012.5
2016-12-11T10:48:37.572Z,1012.47
2016-12-11T10:49:38.310Z,1012.47
2016-12-11T10:50:38.956Z,1012.52
2016-12-11T10:51:39.641Z,1012.51
2016-12-11T10:52:40.350Z,1012.52
2016-12-11T10:53:41.004Z,1012.57
2016-12-11T10:54:41.669Z,1012.54
2016-12-11T10:55:42.363Z,1012.52
2016-12-11T10:56:42.997Z,1012.61
2016-12-11T10:57:43.642Z,1012.6
2016-12-11T10:58:44.350Z,1012.52
2016-12-11T10:59:44.974Z,1012.5
2016-12-11T11:00:45.660Z,1012.52
2016-12-11T11:01:46.405Z,1012.47
2016-12-11T11:02:47.043Z,1012.45
2016-12-11T11:03:47.709Z,1012.46
2016-12-11T11:04:48.367Z,1012.5
2016-12-11T11:05:49.034Z,1012.49
2016-12-11T11:06:49.655Z,1012.48
2016-12-11T11:07:50.316Z,1012.54
2016-12-11T11:08:50.960Z,1012.6
2016-12-11T11:09:51.620Z,1012.63
2016-12-11T11:10:52.267Z,1012.61
2016-12-11T11:11:52.924Z,1012.6
2016-12-11T11:12:53.589Z,1012.64
2016-12-11T11:13:54.254Z,1012.6
2016-12-11T11:14:54.892Z,1012.66
2016-12-11T11:15:55.527Z,1012.64
2016-12-11T11:16:56.164Z,1012.66
2016-12-11T11:17:57.189Z,1012.62
2016-12-11T11:18:57.896Z,1012.62
2016-12-11T11:19:58.549Z,1012.66
2016-12-11T11:20:59.189Z,1012.68
2016-12-11T11:21:59.852Z,1012.67
2016-12-11T11:23:00.493Z,1012.7
2016-12-11T11:24:01.155Z,1012.66
2016-12-11T11:25:01.844Z,1012.67
2016-12-11T11:26:02.510Z,1012.7
2016-12-11T11:27:03.168Z,1012.68
2016-12-11T11:28:03.815Z,1012.63
2016-12-11T11:29:04.477Z,1012.64
2016-12-11T11:30:05.152Z,1012.67
2016-12-11T11:31:05.830Z,1012.68
2016-12-11T11:32:06.879Z,1012.76
2016-12-11T11:33:07.574Z,1012.66
2016-12-11T11:34:08.312Z,1012.63
2016-12-11T11:35:09.045Z,1012.66
2016-12-11T11:36:09.894Z,1012.65
2016-12-11T11:37:10.827Z,1012.65
2016-12-11T11:38:11.499Z,1012.65
2016-12-11T11:39:12.212Z,1012.61
2016-12-11T11:40:12.890Z,1012.63
2016-12-11T11:41:13.627Z,1012.64
2016-12-11T11:42:14.334Z,1012.61
2016-12-11T11:43:15.007Z,1012.57
2016-12-11T11:44:15.723Z,1012.59
2016-12-11T11:45:16.383Z,1012.55
2016-12-11T11:46:17.166Z,1012.56
2016-12-11T11:47:17.941Z,1012.49
2016-12-11T11:48:18.660Z,1012.51
2016-12-11T11:49:19.361Z,1012.51
2016-12-11T11:50:20.023Z,1012.6
2016-12-11T11:51:20.932Z,1012.63
2016-12-11T11:52:21.556Z,1012.7
2016-12-11T11:53:22.232Z,1012.71
2016-12-11T11:54:22.959Z,1012.63
2016-12-11T11:55:23.667Z,1012.6
2016-12-11T11:56:24.337Z,1012.62
2016-12-11T11:57:24.992Z,1012.58
2016-12-11T11:58:25.792Z,1012.59
2016-12-11T11:59:26.539Z,1012.58
2016-12-11T12:00:27.259Z,1012.61
2016-12-11T12:01:27.935Z,1012.62
2016-12-11T12:02:28.684Z,1012.64
2016-12-11T12:03:29.396Z,1012.67
2016-12-11T12:04:30.194Z,1012.66
2016-12-11T12:05:30.921Z,1012.54
2016-12-11T12:06:31.590Z,1012.58
2016-12-11T12:07:32.247Z,1012.6
2016-12-11T12:08:32.986Z,1012.61
2016-12-11T12:09:33.704Z,1012.59
2016-12-11T12:10:34.348Z,1012.57
2016-12-11T12:11:34.987Z,1012.62
2016-12-11T12:12:35.735Z,1012.62
2016-12-11T12:13:36.447Z,1012.56
2016-12-11T12:14:37.099Z,1012.71
2016-12-11T12:15:37.741Z,1012.71
2016-12-11T12:16:38.440Z,1012.73